sensor_id;sensor_type;location;lat;lon;timestamp;P1;durP1;ratioP1;P2;durP2;ratioP2
64242;SDS011;50573;51.512;5.386;2023-07-29T00:06:17;12.77;;;7.93;;
64242;SDS011;50573;51.512;5.386;2023-07-29T00:16:21;11.98;;;8.18;;
64242;SDS011;50573;51.512;5.386;2023-07-29T00:26:25;13.32;;;8.60;;
64242;SDS011;50573;51.512;5.386;2023-07-29T00:36:30;11.77;;;8.82;;
64242;SDS011;50573;51.512;5.386;2023-07-29T00:46:34;12.23;;;9.32;;
64242;SDS011;50573;51.512;5.386;2023-07-29T00:56:40;14.55;;;8.93;;
64242;SDS011;50573;51.512;5.386;2023-07-29T01:06:46;16.08;;;10.05;;
64242;SDS011;50573;51.512;5.386;2023-07-29T01:16:56;14.75;;;8.70;;
64242;SDS011;50573;51.512;5.386;2023-07-29T01:27:05;15.00;;;10.05;;
64242;SDS011;50573;51.512;5.386;2023-07-29T01:37:08;16.10;;;9.80;;
64242;SDS011;50573;51.512;5.386;2023-07-29T01:47:18;13.50;;;8.02;;
64242;SDS011;50573;51.512;5.386;2023-07-29T01:57:23;10.45;;;6.82;;
64242;SDS011;50573;51.512;5.386;2023-07-29T02:07:28;8.30;;;5.35;;
64242;SDS011;50573;51.512;5.386;2023-07-29T02:17:31;9.25;;;5.57;;
64242;SDS011;50573;51.512;5.386;2023-07-29T02:27:35;5.80;;;4.32;;
64242;SDS011;50573;51.512;5.386;2023-07-29T02:37:38;7.53;;;4.65;;
64242;SDS011;50573;51.512;5.386;2023-07-29T02:47:43;7.87;;;5.07;;
64242;SDS011;50573;51.512;5.386;2023-07-29T02:57:46;8.32;;;5.53;;
64242;SDS011;50573;51.512;5.386;2023-07-29T03:07:51;10.38;;;6.05;;
64242;SDS011;50573;51.512;5.386;2023-07-29T03:27:58;10.68;;;6.25;;
64242;SDS011;50573;51.512;5.386;2023-07-29T03:38:01;9.05;;;5.80;;
64242;SDS011;50573;51.512;5.386;2023-07-29T03:48:06;8.77;;;5.65;;
64242;SDS011;50573;51.512;5.386;2023-07-29T03:58:09;10.88;;;5.80;;
64242;SDS011;50573;51.512;5.386;2023-07-29T04:08:14;9.13;;;5.93;;
64242;SDS011;50573;51.512;5.386;2023-07-29T04:18:17;10.35;;;6.18;;
64242;SDS011;50573;51.512;5.386;2023-07-29T04:28:23;8.77;;;5.93;;
64242;SDS011;50573;51.512;5.386;2023-07-29T04:38:29;9.23;;;5.38;;
64242;SDS011;50573;51.512;5.386;2023-07-29T04:48:35;8.43;;;4.93;;
64242;SDS011;50573;51.512;5.386;2023-07-29T05:08:42;7.55;;;3.38;;
64242;SDS011;50573;51.512;5.386;2023-07-29T05:18:46;10.18;;;3.78;;
64242;SDS011;50573;51.512;5.386;2023-07-29T05:28:51;4.77;;;3.40;;
64242;SDS011;50573;51.512;5.386;2023-07-29T05:38:54;7.95;;;3.80;;
64242;SDS011;50573;51.512;5.386;2023-07-29T05:48:58;9.68;;;4.57;;
64242;SDS011;50573;51.512;5.386;2023-07-29T05:59:01;5.07;;;3.65;;
64242;SDS011;50573;51.512;5.386;2023-07-29T06:09:06;4.22;;;3.58;;
64242;SDS011;50573;51.512;5.386;2023-07-29T06:19:09;8.88;;;3.65;;
64242;SDS011;50573;51.512;5.386;2023-07-29T06:29:13;6.27;;;3.63;;
64242;SDS011;50573;51.512;5.386;2023-07-29T06:39:16;4.63;;;2.97;;
64242;SDS011;50573;51.512;5.386;2023-07-29T06:49:21;4.57;;;3.30;;
64242;SDS011;50573;51.512;5.386;2023-07-29T06:59:24;5.30;;;3.20;;
64242;SDS011;50573;51.512;5.386;2023-07-29T07:09:29;4.63;;;2.42;;
64242;SDS011;50573;51.512;5.386;2023-07-29T07:19:32;4.70;;;2.42;;
64242;SDS011;50573;51.512;5.386;2023-07-29T07:29:36;6.33;;;2.57;;
64242;SDS011;50573;51.512;5.386;2023-07-29T07:39:39;7.35;;;2.38;;
64242;SDS011;50573;51.512;5.386;2023-07-29T07:49:44;5.40;;;1.90;;
64242;SDS011;50573;51.512;5.386;2023-07-29T07:59:47;4.63;;;2.00;;
64242;SDS011;50573;51.512;5.386;2023-07-29T08:09:52;2.47;;;1.83;;
64242;SDS011;50573;51.512;5.386;2023-07-29T08:19:55;2.88;;;1.80;;
64242;SDS011;50573;51.512;5.386;2023-07-29T08:30:00;2.88;;;1.70;;
64242;SDS011;50573;51.512;5.386;2023-07-29T08:40:05;4.05;;;2.03;;
64242;SDS011;50573;51.512;5.386;2023-07-29T08:50:10;3.85;;;1.80;;
64242;SDS011;50573;51.512;5.386;2023-07-29T09:00:15;2.17;;;1.58;;
64242;SDS011;50573;51.512;5.386;2023-07-29T09:10:23;1.48;;;1.25;;
64242;SDS011;50573;51.512;5.386;2023-07-29T09:20:28;2.00;;;1.40;;
64242;SDS011;50573;51.512;5.386;2023-07-29T09:40:36;6.55;;;1.55;;
64242;SDS011;50573;51.512;5.386;2023-07-29T09:50:40;3.92;;;1.50;;
64242;SDS011;50573;51.512;5.386;2023-07-29T10:00:44;2.08;;;1.48;;
64242;SDS011;50573;51.512;5.386;2023-07-29T10:10:48;2.03;;;1.40;;
64242;SDS011;50573;51.512;5.386;2023-07-29T10:20:53;2.45;;;1.38;;
64242;SDS011;50573;51.512;5.386;2023-07-29T10:31:00;3.08;;;1.38;;
64242;SDS011;50573;51.512;5.386;2023-07-29T10:41:05;1.55;;;1.38;;
64242;SDS011;50573;51.512;5.386;2023-07-29T10:51:25;2.38;;;1.63;;
64242;SDS011;50573;51.512;5.386;2023-07-29T11:11:36;2.33;;;1.80;;
64242;SDS011;50573;51.512;5.386;2023-07-29T11:21:41;2.63;;;1.67;;
64242;SDS011;50573;51.512;5.386;2023-07-29T11:31:46;4.03;;;1.45;;
64242;SDS011;50573;51.512;5.386;2023-07-29T11:41:50;2.30;;;1.58;;
64242;SDS011;50573;51.512;5.386;2023-07-29T11:51:54;4.65;;;1.63;;
64242;SDS011;50573;51.512;5.386;2023-07-29T12:02:00;3.63;;;1.73;;
64242;SDS011;50573;51.512;5.386;2023-07-29T12:12:13;3.13;;;2.00;;
64242;SDS011;50573;51.512;5.386;2023-07-29T12:22:18;6.93;;;2.80;;
64242;SDS011;50573;51.512;5.386;2023-07-29T12:32:24;3.70;;;2.90;;
64242;SDS011;50573;51.512;5.386;2023-07-29T12:42:28;5.47;;;3.60;;
64242;SDS011;50573;51.512;5.386;2023-07-29T12:52:33;7.45;;;4.75;;
64242;SDS011;50573;51.512;5.386;2023-07-29T13:02:36;5.88;;;4.60;;
64242;SDS011;50573;51.512;5.386;2023-07-29T13:12:44;5.82;;;2.65;;
64242;SDS011;50573;51.512;5.386;2023-07-29T13:22:47;5.07;;;2.38;;
64242;SDS011;50573;51.512;5.386;2023-07-29T13:32:52;5.00;;;2.33;;
64242;SDS011;50573;51.512;5.386;2023-07-29T13:42:57;2.63;;;1.83;;
64242;SDS011;50573;51.512;5.386;2023-07-29T13:53:02;2.33;;;1.88;;
64242;SDS011;50573;51.512;5.386;2023-07-29T14:03:06;2.22;;;1.40;;
64242;SDS011;50573;51.512;5.386;2023-07-29T14:13:10;1.90;;;1.20;;
64242;SDS011;50573;51.512;5.386;2023-07-29T14:23:13;1.63;;;1.40;;
64242;SDS011;50573;51.512;5.386;2023-07-29T14:33:18;2.67;;;1.15;;
64242;SDS011;50573;51.512;5.386;2023-07-29T14:43:21;2.95;;;1.15;;
64242;SDS011;50573;51.512;5.386;2023-07-29T14:53:26;0.93;;;0.90;;
64242;SDS011;50573;51.512;5.386;2023-07-29T15:03:29;1.33;;;1.08;;
64242;SDS011;50573;51.512;5.386;2023-07-29T15:13:33;2.70;;;1.35;;
64242;SDS011;50573;51.512;5.386;2023-07-29T15:23:42;1.80;;;1.25;;
64242;SDS011;50573;51.512;5.386;2023-07-29T15:33:47;3.05;;;1.13;;
64242;SDS011;50573;51.512;5.386;2023-07-29T15:43:50;2.17;;;1.20;;
64242;SDS011;50573;51.512;5.386;2023-07-29T15:54:01;2.80;;;1.77;;
64242;SDS011;50573;51.512;5.386;2023-07-29T16:04:11;1.70;;;1.40;;
64242;SDS011;50573;51.512;5.386;2023-07-29T16:14:23;4.47;;;1.80;;
64242;SDS011;50573;51.512;5.386;2023-07-29T16:24:32;2.35;;;1.70;;
64242;SDS011;50573;51.512;5.386;2023-07-29T16:34:37;1.70;;;1.60;;
64242;SDS011;50573;51.512;5.386;2023-07-29T16:44:41;2.25;;;1.42;;
64242;SDS011;50573;51.512;5.386;2023-07-29T16:54:48;2.85;;;1.73;;
64242;SDS011;50573;51.512;5.386;2023-07-29T17:04:55;3.47;;;2.03;;
64242;SDS011;50573;51.512;5.386;2023-07-29T17:15:10;6.95;;;2.92;;
64242;SDS011;50573;51.512;5.386;2023-07-29T17:25:16;4.45;;;2.35;;
64242;SDS011;50573;51.512;5.386;2023-07-29T17:35:30;2.35;;;1.90;;
64242;SDS011;50573;51.512;5.386;2023-07-29T17:45:34;2.63;;;2.42;;
64242;SDS011;50573;51.512;5.386;2023-07-29T17:55:42;4.32;;;2.67;;
64242;SDS011;50573;51.512;5.386;2023-07-29T18:05:55;3.85;;;2.80;;
64242;SDS011;50573;51.512;5.386;2023-07-29T18:15:59;2.58;;;2.30;;
64242;SDS011;50573;51.512;5.386;2023-07-29T18:26:03;2.78;;;2.58;;
64242;SDS011;50573;51.512;5.386;2023-07-29T18:36:11;3.10;;;2.80;;
64242;SDS011;50573;51.512;5.386;2023-07-29T18:46:17;3.35;;;2.25;;
64242;SDS011;50573;51.512;5.386;2023-07-29T19:06:41;5.68;;;2.47;;
64242;SDS011;50573;51.512;5.386;2023-07-29T19:16:46;9.67;;;2.33;;
64242;SDS011;50573;51.512;5.386;2023-07-29T19:26:51;5.28;;;2.50;;
64242;SDS011;50573;51.512;5.386;2023-07-29T19:37:04;7.10;;;2.58;;
64242;SDS011;50573;51.512;5.386;2023-07-29T19:47:07;5.15;;;2.70;;
64242;SDS011;50573;51.512;5.386;2023-07-29T19:57:12;9.63;;;2.83;;
64242;SDS011;50573;51.512;5.386;2023-07-29T20:07:16;8.52;;;3.00;;
64242;SDS011;50573;51.512;5.386;2023-07-29T20:17:20;4.15;;;2.72;;
64242;SDS011;50573;51.512;5.386;2023-07-29T20:27:23;9.00;;;3.47;;
64242;SDS011;50573;51.512;5.386;2023-07-29T20:37:28;8.32;;;3.00;;
64242;SDS011;50573;51.512;5.386;2023-07-29T20:47:31;12.90;;;3.33;;
64242;SDS011;50573;51.512;5.386;2023-07-29T20:57:35;9.43;;;3.20;;
64242;SDS011;50573;51.512;5.386;2023-07-29T21:17:43;9.38;;;3.35;;
64242;SDS011;50573;51.512;5.386;2023-07-29T21:37:51;11.32;;;3.47;;
64242;SDS011;50573;51.512;5.386;2023-07-29T21:47:54;11.63;;;3.60;;
64242;SDS011;50573;51.512;5.386;2023-07-29T21:57:58;10.93;;;3.70;;
64242;SDS011;50573;51.512;5.386;2023-07-29T22:08:01;8.82;;;3.28;;
64242;SDS011;50573;51.512;5.386;2023-07-29T22:18:06;11.83;;;3.47;;
64242;SDS011;50573;51.512;5.386;2023-07-29T22:28:09;8.75;;;4.10;;
64242;SDS011;50573;51.512;5.386;2023-07-29T22:38:14;10.50;;;4.22;;
64242;SDS011;50573;51.512;5.386;2023-07-29T22:48:17;8.60;;;3.70;;
64242;SDS011;50573;51.512;5.386;2023-07-29T22:58:21;11.23;;;3.78;;
64242;SDS011;50573;51.512;5.386;2023-07-29T23:08:25;9.57;;;3.90;;
64242;SDS011;50573;51.512;5.386;2023-07-29T23:18:29;10.13;;;3.53;;
64242;SDS011;50573;51.512;5.386;2023-07-29T23:28:32;9.35;;;3.17;;
64242;SDS011;50573;51.512;5.386;2023-07-29T23:38:36;11.68;;;4.18;;
64242;SDS011;50573;51.512;5.386;2023-07-29T23:48:39;12.32;;;3.95;;
64242;SDS011;50573;51.512;5.386;2023-07-29T23:58:44;13.90;;;4.30;;
